Time;durP1;ratioP1;P1;durP2;ratioP2;P2;SDS_P1;SDS_P2;PMS_P1;PMS_P2;Temp;Humidity;BMP_temperature;BMP_pressure;BME280_temperature;BME280_humidity;BME280_pressure;Samples;Min_cycle;Max_cycle;Signal;HPM_P1;HPM_P2
2022/04/11 00:01:37;;;;;;;12.73;5.80;;;;;0.80;96665.00;;;;8355309;28;20228;-69
2022/04/11 00:05:41;;;;;;;10.03;5.70;;;;;0.80;96663.00;;;;8353364;28;20229;-69
2022/04/11 00:09:44;;;;;;;8.83;5.60;;;;;0.70;96665.00;;;;8351643;28;20279;-68
2022/04/11 00:13:47;;;;;;;13.70;5.83;;;;;0.50;96654.00;;;;8350695;28;20757;-68
2022/04/11 00:17:52;;;;;;;8.73;5.27;;;;;0.40;96658.00;;;;8352404;28;20216;-68
2022/04/11 00:21:55;;;;;;;10.63;6.17;;;;;0.40;96651.00;;;;8351604;28;20331;-68
2022/04/11 00:25:59;;;;;;;13.67;6.13;;;;;0.30;96655.00;;;;8348517;28;20247;-68
2022/04/11 00:30:02;;;;;;;14.23;5.83;;;;;0.30;96652.00;;;;8351853;28;20229;-68
2022/04/11 00:34:07;;;;;;;10.50;5.43;;;;;0.20;96654.00;;;;8350761;28;20593;-68
2022/04/11 00:38:10;;;;;;;11.07;5.47;;;;;0.20;96647.00;;;;8348933;28;20224;-68
2022/04/11 00:42:15;;;;;;;9.17;4.80;;;;;0.20;96646.00;;;;8350863;28;20247;-67
2022/04/11 00:46:18;;;;;;;10.73;5.43;;;;;0.10;96644.00;;;;8346804;28;20232;-69
2022/04/11 00:50:23;;;;;;;10.40;5.67;;;;;0.10;96640.00;;;;8349571;28;20656;-68
2022/04/11 00:54:28;;;;;;;9.30;5.20;;;;;0.00;96648.00;;;;8351328;28;21305;-69
2022/04/11 00:58:31;;;;;;;11.47;5.00;;;;;-0.10;96646.00;;;;8347332;28;20220;-68
2022/04/11 01:02:35;;;;;;;9.60;5.73;;;;;-0.20;96642.00;;;;8350952;28;20313;-68
2022/04/11 01:06:40;;;;;;;10.27;5.20;;;;;-0.30;96645.00;;;;8348641;28;20219;-68
2022/04/11 01:10:44;;;;;;;10.27;5.10;;;;;-0.40;96650.00;;;;8350259;28;20791;-68
2022/04/11 01:14:47;;;;;;;9.60;5.33;;;;;-0.40;96646.00;;;;8348888;28;20228;-68
2022/04/11 01:18:50;;;;;;;9.73;5.47;;;;;-0.40;96643.00;;;;8349506;28;20701;-68
2022/04/11 01:22:55;;;;;;;15.07;5.77;;;;;-0.50;96651.00;;;;8350272;28;20225;-68
2022/04/11 01:26:58;;;;;;;12.23;6.17;;;;;-0.50;96647.00;;;;8349707;28;20311;-68
2022/04/11 01:31:01;;;;;;;10.10;5.30;;;;;-0.50;96645.00;;;;8350052;28;20699;-69
2022/04/11 01:35:05;;;;;;;12.83;5.13;;;;;-0.50;96640.00;;;;8343368;28;20224;-69
2022/04/11 01:39:10;;;;;;;8.30;5.43;;;;;-0.50;96641.00;;;;8349781;28;20242;-69
2022/04/11 01:43:13;;;;;;;11.47;5.77;;;;;-0.50;96632.00;;;;8345553;28;20919;-68
2022/04/11 01:47:16;;;;;;;13.00;5.10;;;;;-0.50;96641.00;;;;8343965;28;20228;-69
2022/04/11 01:51:19;;;;;;;12.17;5.40;;;;;-0.50;96639.00;;;;8348428;28;20232;-69
2022/04/11 01:55:24;;;;;;;13.90;5.27;;;;;-0.50;96645.00;;;;8346356;28;20304;-69
2022/04/11 01:59:27;;;;;;;10.57;5.40;;;;;-0.50;96643.00;;;;8347454;28;20240;-69
2022/04/11 02:03:30;;;;;;;9.60;5.00;;;;;-0.50;96636.00;;;;8348434;28;20594;-69
2022/04/11 02:07:33;;;;;;;9.87;5.10;;;;;-0.50;96639.00;;;;8343039;28;20706;-70
2022/04/11 02:11:38;;;;;;;10.47;5.33;;;;;-0.60;96644.00;;;;8348220;28;20272;-70
2022/04/11 02:15:41;;;;;;;12.07;4.80;;;;;-0.70;96642.00;;;;8346580;28;20300;-70
2022/04/11 02:19:44;;;;;;;10.33;5.20;;;;;-0.80;96635.00;;;;8348433;28;20236;-69
2022/04/11 02:23:47;;;;;;;12.77;4.73;;;;;-0.90;96634.00;;;;8346388;28;20235;-69
2022/04/11 02:27:54;;;;;;;9.13;5.33;;;;;-0.90;96622.00;;;;8348437;28;20783;-69
2022/04/11 02:31:57;;;;;;;10.20;5.20;;;;;-1.00;96632.00;;;;8347410;28;20236;-69
2022/04/11 02:36:00;;;;;;;10.53;4.90;;;;;-1.00;96626.00;;;;8346139;28;20225;-69
2022/04/11 02:40:05;;;;;;;8.13;5.03;;;;;-1.00;96621.00;;;;8348302;28;20230;-69
2022/04/11 02:44:10;;;;;;;12.60;5.10;;;;;-1.00;96624.00;;;;8344684;28;20221;-69
2022/04/11 02:48:13;;;;;;;9.30;4.97;;;;;-1.00;96622.00;;;;8347051;28;20303;-69
2022/04/11 02:52:17;;;;;;;17.50;5.37;;;;;-1.00;96624.00;;;;8347024;28;20232;-69
2022/04/11 02:56:20;;;;;;;11.63;5.10;;;;;-1.00;96621.00;;;;8345150;28;20227;-69
2022/04/11 03:04:44;;;;;;;15.10;4.87;;;;;-0.90;96612.00;;;;8261693;26;20214;-69
2022/04/11 03:08:47;;;;;;;10.43;5.50;;;;;-0.90;96618.00;;;;8277817;28;20981;-68
2022/04/11 03:12:50;;;;;;;12.03;5.87;;;;;-1.00;96610.00;;;;8282207;28;20226;-67
2022/04/11 03:16:56;;;;;;;13.93;5.77;;;;;-1.00;96612.00;;;;8298910;28;20233;-69
2022/04/11 03:20:59;;;;;;;11.40;5.40;;;;;-1.00;96619.00;;;;8290604;28;20229;-68
2022/04/11 03:25:03;;;;;;;9.07;5.43;;;;;-1.00;96616.00;;;;8288462;28;20651;-69
2022/04/11 03:29:06;;;;;;;15.80;5.53;;;;;-1.00;96621.00;;;;8281698;28;20316;-70
2022/04/11 03:33:12;;;;;;;14.03;6.07;;;;;-1.10;96606.00;;;;8277160;28;20221;-68
2022/04/11 03:37:15;;;;;;;12.90;5.60;;;;;-1.10;96611.00;;;;8282553;28;20248;-69
2022/04/11 03:41:18;;;;;;;10.77;5.40;;;;;-1.10;96603.00;;;;8281542;28;20793;-68
2022/04/11 03:45:21;;;;;;;9.87;5.40;;;;;-1.10;96608.00;;;;8281416;28;20253;-68
2022/04/11 03:49:26;;;;;;;7.10;5.00;;;;;-1.10;96610.00;;;;8284906;28;20301;-69
2022/04/11 03:53:29;;;;;;;11.90;5.97;;;;;-1.20;96609.00;;;;8288559;28;20312;-69
2022/04/11 03:57:32;;;;;;;11.07;6.23;;;;;-1.20;96602.00;;;;8279548;28;20227;-68
2022/04/11 04:01:35;;;;;;;12.13;5.53;;;;;-1.30;96604.00;;;;8280688;28;20243;-68
2022/04/11 04:05:42;;;;;;;15.83;5.87;;;;;-1.30;96595.00;;;;8279976;28;20226;-69
2022/04/11 04:09:45;;;;;;;12.07;5.93;;;;;-1.30;96597.00;;;;8284455;28;20230;-70
2022/04/11 04:13:48;;;;;;;12.07;5.63;;;;;-1.30;96589.00;;;;8281820;28;20225;-69
2022/04/11 04:17:52;;;;;;;11.63;5.40;;;;;-1.30;96590.00;;;;8285403;28;20230;-70
2022/04/11 04:21:57;;;;;;;9.87;5.47;;;;;-1.40;96585.00;;;;8283329;28;20332;-69
2022/04/11 04:26:00;;;;;;;17.47;6.70;;;;;-1.30;96578.00;;;;8286544;28;20313;-72
2022/04/11 04:30:04;;;;;;;14.00;6.27;;;;;-1.30;96566.00;;;;8286207;28;20325;-71
2022/04/11 04:34:07;;;;;;;18.07;7.33;;;;;-1.20;96576.00;;;;8287515;28;20222;-71
2022/04/11 04:38:12;;;;;;;15.77;7.37;;;;;-1.00;96584.00;;;;8287905;28;20233;-71
2022/04/11 04:42:21;;;;;;;19.83;7.10;;;;;-0.90;96586.00;;;;8279305;28;20243;-70
2022/04/11 04:46:24;;;;;;;19.27;8.50;;;;;-0.90;96583.00;;;;8284408;28;20218;-71
2022/04/11 04:50:27;;;;;;;17.30;8.73;;;;;-0.80;96585.00;;;;8286249;28;20724;-72
2022/04/11 04:54:32;;;;;;;15.43;8.43;;;;;-0.60;96587.00;;;;8285041;28;20232;-72
2022/04/11 04:58:35;;;;;;;18.57;10.33;;;;;-0.40;96585.00;;;;8282032;28;20218;-71
2022/04/11 05:02:39;;;;;;;19.57;9.40;;;;;-0.10;96576.00;;;;8283778;28;20324;-72
2022/04/11 05:06:43;;;;;;;19.03;9.93;;;;;0.10;96580.00;;;;8285109;28;20312;-73
2022/04/11 05:10:48;;;;;;;22.10;10.23;;;;;0.40;96575.00;;;;8285120;28;21025;-73
2022/04/11 05:14:51;;;;;;;22.33;10.30;;;;;0.70;96566.00;;;;8284034;28;20221;-71
2022/04/11 05:18:54;;;;;;;17.83;11.10;;;;;0.90;96575.00;;;;8285426;28;20832;-73
2022/04/11 05:22:58;;;;;;;20.20;10.40;;;;;1.20;96576.00;;;;8284407;28;20582;-73
2022/04/11 05:27:02;;;;;;;20.03;10.83;;;;;1.40;96574.00;;;;8282930;28;20390;-72
2022/04/11 05:31:06;;;;;;;22.07;11.17;;;;;1.70;96576.00;;;;8285475;28;20265;-73
2022/04/11 05:35:10;;;;;;;18.10;10.23;;;;;1.90;96578.00;;;;8282791;28;20222;-71
2022/04/11 05:39:13;;;;;;;23.30;9.93;;;;;2.10;96579.00;;;;8283212;28;20234;-72
2022/04/11 05:43:18;;;;;;;20.43;9.70;;;;;2.20;96579.00;;;;8284274;28;20253;-70
2022/04/11 05:47:22;;;;;;;19.63;9.03;;;;;2.30;96579.00;;;;8284475;28;20791;-70
2022/04/11 05:51:26;;;;;;;21.20;9.73;;;;;2.40;96579.00;;;;8284627;28;20309;-70
2022/04/11 05:55:30;;;;;;;13.83;8.80;;;;;2.60;96588.00;;;;8284262;28;20314;-71
2022/04/11 05:59:34;;;;;;;30.47;10.40;;;;;2.70;96587.00;;;;8283099;28;20314;-71
2022/04/11 06:03:38;;;;;;;15.90;10.17;;;;;2.80;96585.00;;;;8284103;28;20255;-71
2022/04/11 06:07:42;;;;;;;19.27;10.47;;;;;3.00;96588.00;;;;8283829;28;20309;-72
2022/04/11 06:11:45;;;;;;;19.83;10.23;;;;;3.10;96587.00;;;;8285606;28;20319;-71
2022/04/11 06:15:49;;;;;;;16.87;10.87;;;;;3.30;96586.00;;;;8290438;28;20325;-71
2022/04/11 06:19:53;;;;;;;19.10;9.73;;;;;3.40;96592.00;;;;8282710;28;20229;-72
2022/04/11 06:23:56;;;;;;;16.30;10.13;;;;;3.60;96586.00;;;;8279115;28;20231;-73
2022/04/11 06:28:00;;;;;;;23.40;10.63;;;;;3.70;96589.00;;;;8284140;28;20309;-73
2022/04/11 06:32:05;;;;;;;22.97;10.30;;;;;3.70;96591.00;;;;8282068;28;20309;-74
2022/04/11 06:36:09;;;;;;;18.97;9.77;;;;;3.80;96592.00;;;;8287993;28;20318;-72
2022/04/11 06:40:13;;;;;;;20.80;9.93;;;;;3.90;96591.00;;;;8282348;28;20229;-72
2022/04/11 06:44:16;;;;;;;19.17;10.37;;;;;4.10;96603.00;;;;8282635;28;20620;-73
2022/04/11 06:48:21;;;;;;;18.60;9.53;;;;;4.20;96588.00;;;;8281293;28;20331;-73
2022/04/11 06:52:24;;;;;;;19.33;10.10;;;;;4.40;96597.00;;;;8282569;28;20676;-74
2022/04/11 06:56:27;;;;;;;18.50;10.47;;;;;4.60;96605.00;;;;8281794;28;20222;-73
2022/04/11 07:00:30;;;;;;;18.43;10.10;;;;;4.80;96598.00;;;;8282082;28;20229;-74
2022/04/11 07:04:35;;;;;;;22.93;10.23;;;;;5.10;96611.00;;;;8280397;28;20238;-73
2022/04/11 07:08:38;;;;;;;20.37;10.17;;;;;5.40;96612.00;;;;8281616;28;20731;-73
2022/04/11 07:12:42;;;;;;;19.53;10.10;;;;;5.70;96623.00;;;;8281626;28;20732;-74
2022/04/11 07:16:46;;;;;;;19.30;9.43;;;;;6.10;96622.00;;;;8282932;28;20673;-73
2022/04/11 07:20:50;;;;;;;18.03;9.87;;;;;6.50;96642.00;;;;8276387;28;20960;-72
2022/04/11 07:24:53;;;;;;;19.50;9.77;;;;;6.80;96647.00;;;;8281116;28;20671;-73
2022/04/11 07:28:56;;;;;;;21.53;9.90;;;;;7.40;96645.00;;;;8282218;28;20259;-72
2022/04/11 07:33:00;;;;;;;16.33;9.13;;;;;7.90;96644.00;;;;8280753;28;20234;-74
2022/04/11 07:37:07;;;;;;;22.30;9.23;;;;;8.40;96652.00;;;;8279809;28;20258;-76
2022/04/11 07:41:10;;;;;;;13.60;8.17;;;;;8.70;96647.00;;;;8281160;28;20280;-74
2022/04/11 07:45:14;;;;;;;12.10;7.43;;;;;8.90;96640.00;;;;8285450;28;20313;-73
2022/04/11 07:49:17;;;;;;;15.50;8.33;;;;;9.30;96638.00;;;;8288165;28;20301;-73
2022/04/11 07:53:22;;;;;;;12.43;8.00;;;;;9.60;96643.00;;;;8287760;28;20249;-73
2022/04/11 07:57:25;;;;;;;10.67;7.90;;;;;9.80;96645.00;;;;8288116;28;20479;-70
2022/04/11 08:01:49;;;;;;;15.27;8.27;;;;;10.20;96645.00;;;;8286099;28;20308;-71
2022/04/11 08:05:52;;;;;;;16.73;8.27;;;;;10.60;96639.00;;;;8285464;28;20309;-71
2022/04/11 08:09:57;;;;;;;15.50;8.43;;;;;10.80;96637.00;;;;8286939;28;20647;-69
2022/04/11 08:14:01;;;;;;;13.02;8.10;;;;;11.50;96638.00;;;;8284563;28;20257;-70
2022/04/11 08:18:04;;;;;;;12.17;7.63;;;;;12.20;96640.00;;;;8285397;28;20732;-70
2022/04/11 08:22:08;;;;;;;15.32;7.85;;;;;12.80;96647.00;;;;8281435;28;20707;-69
2022/04/11 08:26:13;;;;;;;14.00;7.47;;;;;13.00;96647.00;;;;8286091;28;20230;-69
2022/04/11 08:30:16;;;;;;;14.82;7.88;;;;;13.00;96641.00;;;;8285520;28;20332;-68
2022/04/11 08:34:20;;;;;;;12.67;7.87;;;;;13.00;96642.00;;;;8285379;28;20227;-69
2022/04/11 08:38:23;;;;;;;11.97;7.57;;;;;13.10;96639.00;;;;8285465;28;20657;-69
2022/04/11 08:42:27;;;;;;;11.63;6.85;;;;;13.70;96639.00;;;;8285532;28;20257;-71
2022/04/11 08:46:31;;;;;;;14.85;7.38;;;;;14.10;96635.00;;;;8284808;28;20262;-69
2022/04/11 08:50:34;;;;;;;10.38;6.45;;;;;14.30;96642.00;;;;8287027;28;20239;-68
2022/04/11 08:54:38;;;;;;;11.63;6.80;;;;;14.60;96640.00;;;;8285965;28;20229;-70
2022/04/11 08:58:43;;;;;;;10.20;5.43;;;;;14.60;96639.00;;;;8284713;28;20945;-71
2022/04/11 09:02:47;;;;;;;10.93;6.25;;;;;14.80;96634.00;;;;8285351;28;20243;-70
2022/04/11 09:06:56;;;;;;;10.10;5.45;;;;;14.70;96628.00;;;;8284760;28;20228;-69
2022/04/11 09:10:59;;;;;;;8.77;5.35;;;;;14.80;96623.00;;;;8286583;28;20244;-72
2022/04/11 09:15:07;;;;;;;11.77;6.28;;;;;14.90;96627.00;;;;8285730;28;20541;-69
2022/04/11 09:19:19;;;;;;;10.32;5.13;;;;;14.90;96626.00;;;;8283577;28;20300;-72
2022/04/11 09:23:43;;;;;;;9.52;5.35;;;;;15.30;96618.00;;;;8285498;28;20628;-71
2022/04/11 09:27:47;;;;;;;8.15;4.30;;;;;15.50;96611.00;;;;8286082;28;20233;-71
2022/04/11 09:31:52;;;;;;;11.10;5.35;;;;;15.80;96616.00;;;;8284925;28;20670;-71
2022/04/11 09:35:55;;;;;;;7.40;4.93;;;;;16.00;96613.00;;;;8283425;28;20859;-72
2022/04/11 09:39:58;;;;;;;9.05;5.60;;;;;16.20;96611.00;;;;8284356;28;20231;-69
2022/04/11 09:44:20;;;;;;;12.68;5.50;;;;;16.30;96607.00;;;;8284259;28;20307;-72
2022/04/11 09:48:26;;;;;;;7.18;5.55;;;;;16.40;96600.00;;;;8284683;28;20221;-71
2022/04/11 09:52:29;;;;;;;7.07;4.72;;;;;16.60;96612.00;;;;8285435;28;20234;-72
2022/04/11 09:56:32;;;;;;;8.88;5.38;;;;;16.90;96600.00;;;;8284618;28;20222;-73
2022/04/11 10:00:37;;;;;;;5.47;4.15;;;;;17.10;96608.00;;;;8284741;28;20232;-70
2022/04/11 10:04:42;;;;;;;10.10;4.75;;;;;17.00;96601.00;;;;8284261;28;20241;-72
2022/04/11 10:08:49;;;;;;;8.05;4.70;;;;;17.10;96599.00;;;;8283651;28;20259;-71
2022/04/11 10:12:53;;;;;;;6.55;3.28;;;;;17.00;96593.00;;;;8281989;28;20233;-72
2022/04/11 10:17:00;;;;;;;6.82;4.90;;;;;17.10;96593.00;;;;8281484;28;20995;-74
2022/04/11 10:21:09;;;;;;;5.85;4.72;;;;;17.20;96584.00;;;;8278898;28;20292;-70
2022/04/11 10:25:37;;;;;;;5.63;4.50;;;;;17.10;96576.00;;;;8279830;28;20237;-71
2022/04/11 10:29:40;;;;;;;7.40;4.50;;;;;17.30;96581.00;;;;8271475;28;20301;-70
2022/04/11 10:33:46;;;;;;;7.43;4.07;;;;;17.60;96585.00;;;;8283402;28;20318;-70
2022/04/11 10:38:09;;;;;;;8.25;4.88;;;;;17.40;96588.00;;;;8283192;28;20313;-72
2022/04/11 10:42:14;;;;;;;5.15;4.20;;;;;17.70;96565.00;;;;8283624;28;20335;-72
2022/04/11 10:46:17;;;;;;;6.45;4.32;;;;;17.70;96573.00;;;;8283170;28;20236;-71
2022/04/11 10:50:25;;;;;;;7.57;4.13;;;;;17.50;96566.00;;;;8282899;28;20955;-72
2022/04/11 10:54:47;;;;;;;7.43;3.78;;;;;17.60;96570.00;;;;8282252;28;20265;-72
2022/04/11 10:58:54;;;;;;;5.00;3.50;;;;;17.90;96558.00;;;;8283082;28;20287;-71
2022/04/11 11:03:06;;;;;;;6.95;4.10;;;;;17.70;96540.00;;;;8282582;28;20242;-72
2022/04/11 11:07:30;;;;;;;4.38;3.55;;;;;17.80;96546.00;;;;8282201;28;20249;-69
2022/04/11 11:11:35;;;;;;;5.63;4.25;;;;;17.60;96539.00;;;;8282951;28;20241;-73
2022/04/11 11:15:38;;;;;;;5.07;3.90;;;;;17.00;96534.00;;;;8283240;28;20255;-71
2022/04/11 11:20:05;;;;;;;5.00;3.72;;;;;17.20;96531.00;;;;8289223;28;20301;-71
2022/04/11 11:24:14;;;;;;;7.20;4.95;;;;;17.40;96519.00;;;;8294732;28;20696;-73
2022/04/11 11:28:19;;;;;;;4.57;4.07;;;;;17.40;96512.00;;;;8283489;28;20230;-71
2022/04/11 11:32:23;;;;;;;9.18;4.53;;;;;17.60;96515.00;;;;8289203;28;20594;-71
2022/04/11 11:36:29;;;;;;;5.28;4.07;;;;;17.70;96510.00;;;;8289759;28;20222;-72
2022/04/11 11:40:44;;;;;;;5.47;4.22;;;;;17.70;96509.00;;;;8287841;28;20384;-72
2022/04/11 11:44:50;;;;;;;7.38;4.05;;;;;17.60;96501.00;;;;8290133;28;20655;-70
2022/04/11 11:48:56;;;;;;;5.32;4.10;;;;;17.00;96512.00;;;;8288754;28;20244;-72
2022/04/11 11:52:59;;;;;;;7.28;4.57;;;;;16.50;96516.00;;;;8288616;28;20312;-70
2022/04/11 11:57:04;;;;;;;6.25;4.57;;;;;16.20;96498.00;;;;8288182;28;20249;-71
2022/04/11 12:01:11;;;;;;;4.95;4.03;;;;;16.10;96491.00;;;;8284595;28;20233;-70
2022/04/11 12:05:20;;;;;;;7.22;5.05;;;;;16.00;96496.00;;;;8294331;28;20261;-72
2022/04/11 12:09:23;;;;;;;6.00;4.88;;;;;15.80;96496.00;;;;8286860;28;20249;-72
2022/04/11 12:13:29;;;;;;;6.57;4.90;;;;;15.50;96496.00;;;;8279349;28;20273;-71
2022/04/11 12:17:35;;;;;;;6.50;4.55;;;;;15.40;96490.00;;;;8287240;28;20670;-72
2022/04/11 12:21:40;;;;;;;5.90;5.15;;;;;15.30;96478.00;;;;8286966;28;20316;-72
2022/04/11 12:25:51;;;;;;;6.32;4.70;;;;;15.20;96470.00;;;;8285535;28;20248;-71
2022/04/11 12:29:55;;;;;;;6.28;4.90;;;;;15.30;96468.00;;;;8281618;28;20229;-71
2022/04/11 12:34:10;;;;;;;5.35;4.78;;;;;15.40;96467.00;;;;8285196;28;20240;-72
2022/04/11 12:38:13;;;;;;;5.78;4.70;;;;;15.30;96460.00;;;;8283999;28;20316;-71
2022/04/11 12:42:18;;;;;;;8.95;5.20;;;;;15.20;96459.00;;;;8287381;28;20224;-70
2022/04/11 12:46:24;;;;;;;7.18;5.53;;;;;15.00;96446.00;;;;8283904;28;20228;-70
2022/04/11 12:50:29;;;;;;;5.25;4.75;;;;;14.70;96441.00;;;;8284169;28;20222;-70
2022/04/11 12:54:36;;;;;;;6.07;4.90;;;;;14.70;96437.00;;;;8282603;28;20237;-72
2022/04/11 12:58:39;;;;;;;7.68;4.88;;;;;14.80;96427.00;;;;8284610;28;20689;-71
2022/04/11 13:02:43;;;;;;;4.60;3.83;;;;;15.00;96436.00;;;;8283928;28;20228;-72
2022/04/11 13:06:49;;;;;;;5.57;4.63;;;;;15.20;96426.00;;;;8284227;28;20260;-70
2022/04/11 13:10:54;;;;;;;9.02;5.20;;;;;15.40;96429.00;;;;8281895;28;20260;-71
2022/04/11 13:14:58;;;;;;;5.28;4.38;;;;;15.40;96422.00;;;;8283779;28;20222;-67
2022/04/11 13:19:01;;;;;;;7.15;5.03;;;;;15.50;96415.00;;;;8281725;28;20222;-66
2022/04/11 13:23:07;;;;;;;4.72;3.80;;;;;15.60;96420.00;;;;8282918;28;20661;-66
2022/04/11 13:27:10;;;;;;;7.95;5.57;;;;;15.60;96410.00;;;;8284606;28;20229;-67
2022/04/11 13:31:13;;;;;;;8.02;5.50;;;;;15.60;96401.00;;;;8286499;28;21030;-66
2022/04/11 13:35:16;;;;;;;7.78;5.75;;;;;15.80;96402.00;;;;8282621;28;20237;-67
2022/04/11 13:39:22;;;;;;;7.47;5.05;;;;;16.10;96392.00;;;;8279810;28;20237;-68
2022/04/11 13:43:26;;;;;;;6.22;5.47;;;;;16.50;96393.00;;;;8277631;28;20226;-66
2022/04/11 13:47:32;;;;;;;5.93;5.07;;;;;17.10;96394.00;;;;8274426;28;20230;-67
2022/04/11 13:51:37;;;;;;;13.02;5.90;;;;;17.70;96385.00;;;;8279724;28;20252;-68
2022/04/11 13:56:01;;;;;;;11.75;5.55;;;;;18.00;96380.00;;;;8278379;28;20300;-68
2022/04/11 14:00:05;;;;;;;6.78;6.03;;;;;18.20;96378.00;;;;8281582;28;20273;-70
2022/04/11 14:04:08;;;;;;;8.05;6.20;;;;;18.50;96375.00;;;;8276429;28;20748;-70
2022/04/11 14:08:13;;;;;;;7.00;6.10;;;;;18.70;96370.00;;;;8278796;28;20304;-73
2022/04/11 14:12:17;;;;;;;8.70;5.72;;;;;18.80;96352.00;;;;8289657;28;20336;-72
2022/04/11 14:16:21;;;;;;;7.40;5.90;;;;;19.00;96354.00;;;;8276538;28;20638;-72
2022/04/11 14:20:24;;;;;;;6.53;4.90;;;;;19.10;96345.00;;;;8281574;28;20226;-73
2022/04/11 14:24:27;;;;;;;7.82;5.60;;;;;19.20;96343.00;;;;8283560;28;20320;-72
2022/04/11 14:28:33;;;;;;;6.22;5.28;;;;;19.10;96344.00;;;;8283794;28;20249;-74
2022/04/11 14:32:37;;;;;;;5.75;5.15;;;;;18.90;96338.00;;;;8278491;28;20722;-73
2022/04/11 14:36:48;;;;;;;8.73;5.68;;;;;19.00;96331.00;;;;8275950;28;20260;-73
2022/04/11 14:40:51;;;;;;;7.80;5.20;;;;;19.10;96330.00;;;;8273092;28;20238;-73
2022/04/11 14:44:56;;;;;;;6.03;5.38;;;;;19.20;96322.00;;;;8279114;28;20771;-71
2022/04/11 14:48:59;;;;;;;6.55;5.43;;;;;19.20;96324.00;;;;8280542;28;20870;-70
2022/04/11 14:53:04;;;;;;;6.53;5.93;;;;;19.10;96316.00;;;;8280784;28;20317;-70
2022/04/11 14:57:19;;;;;;;11.77;8.63;;;;;19.20;96314.00;;;;8277142;28;20296;-71
2022/04/11 15:01:23;;;;;;;11.63;8.00;;;;;19.30;96305.00;;;;8278512;28;20245;-72
2022/04/11 15:05:26;;;;;;;9.35;6.63;;;;;19.30;96302.00;;;;8279599;28;20221;-70
2022/04/11 15:09:32;;;;;;;6.88;6.05;;;;;19.20;96307.00;;;;8280841;28;20308;-70
2022/04/11 15:13:36;;;;;;;8.60;5.68;;;;;19.40;96310.00;;;;8285372;28;20252;-72
2022/04/11 15:17:41;;;;;;;5.32;4.82;;;;;19.50;96300.00;;;;8281893;28;20225;-70
2022/04/11 15:21:44;;;;;;;8.48;5.40;;;;;19.30;96298.00;;;;8280053;28;21010;-70
2022/04/11 15:25:50;;;;;;;7.95;5.05;;;;;19.30;96294.00;;;;8278294;28;20241;-71
2022/04/11 15:29:53;;;;;;;6.50;5.25;;;;;19.20;96291.00;;;;8281547;28;20756;-72
2022/04/11 15:34:00;;;;;;;8.02;5.75;;;;;18.90;96294.00;;;;8277561;28;20915;-70
2022/04/11 15:38:03;;;;;;;7.35;5.45;;;;;18.80;96289.00;;;;8282517;28;20309;-69
2022/04/11 15:42:07;;;;;;;9.32;5.63;;;;;18.90;96285.00;;;;8280967;28;20240;-68
2022/04/11 15:46:10;;;;;;;6.65;5.50;;;;;19.00;96287.00;;;;8282466;28;20781;-69
2022/04/11 15:50:16;;;;;;;8.90;5.68;;;;;18.80;96280.00;;;;8283080;28;20222;-70
2022/04/11 15:54:26;;;;;;;10.20;6.47;;;;;18.70;96283.00;;;;8283188;28;20583;-69
2022/04/11 15:58:30;;;;;;;10.13;5.68;;;;;18.40;96274.00;;;;8282659;28;20693;-68
2022/04/11 16:02:34;;;;;;;8.43;5.57;;;;;18.60;96268.00;;;;8282126;28;20774;-70
2022/04/11 16:06:39;;;;;;;9.35;6.13;;;;;18.60;96271.00;;;;8282753;28;20222;-70
2022/04/11 16:10:42;;;;;;;10.30;6.57;;;;;18.50;96273.00;;;;8283795;28;20328;-69
2022/04/11 16:14:45;;;;;;;11.50;8.10;;;;;18.60;96270.00;;;;8286603;28;20253;-72
2022/04/11 16:18:55;;;;;;;12.25;7.90;;;;;18.80;96264.00;;;;8276423;28;20262;-70
2022/04/11 16:22:59;;;;;;;10.82;7.63;;;;;18.80;96261.00;;;;8281186;28;20602;-70
2022/04/11 16:27:03;;;;;;;8.85;6.05;;;;;18.80;96272.00;;;;8288689;28;20244;-69
2022/04/11 16:31:07;;;;;;;7.68;5.90;;;;;19.00;96273.00;;;;8284720;28;20261;-73
2022/04/11 16:35:11;;;;;;;7.68;5.75;;;;;19.10;96279.00;;;;8286944;28;20236;-71
2022/04/11 16:39:31;;;;;;;10.80;5.95;;;;;18.90;96268.00;;;;8279194;28;20249;-69
2022/04/11 16:43:34;;;;;;;5.63;5.07;;;;;18.70;96267.00;;;;8282911;28;20317;-69
2022/04/11 16:47:37;;;;;;;7.03;5.25;;;;;18.50;96263.00;;;;8288909;28;20232;-69
2022/04/11 16:51:40;;;;;;;7.97;5.57;;;;;18.00;96261.00;;;;8287916;28;20701;-68
2022/04/11 16:55:45;;;;;;;7.70;6.00;;;;;17.60;96267.00;;;;8284388;28;20217;-68
2022/04/11 16:59:48;;;;;;;7.78;5.97;;;;;17.10;96255.00;;;;8284226;28;20634;-70
2022/04/11 17:03:52;;;;;;;13.27;7.35;;;;;16.40;96252.00;;;;8275063;28;20699;-68
2022/04/11 17:07:55;;;;;;;17.83;12.35;;;;;15.80;96248.00;;;;8287165;28;20988;-70
2022/04/11 17:12:00;;;;;;;218.38;111.07;;;;;15.30;96248.00;;;;8286037;28;20234;-69
2022/04/11 17:20:24;;;;;;;57.90;52.83;;;;;14.50;96251.00;;;;8281197;28;20238;-71
2022/04/11 17:24:28;;;;;;;17.52;11.65;;;;;14.20;96248.00;;;;8278973;28;20225;-68
2022/04/11 17:28:33;;;;;;;12.32;6.80;;;;;13.80;96248.00;;;;8277750;28;20241;-70
2022/04/11 17:32:36;;;;;;;10.00;6.18;;;;;13.50;96244.00;;;;8280761;28;20614;-68
2022/04/11 17:36:40;;;;;;;12.68;7.03;;;;;13.30;96249.00;;;;8282135;28;20315;-72
2022/04/11 17:40:43;;;;;;;15.88;6.63;;;;;13.10;96249.00;;;;8283020;28;20231;-69
2022/04/11 17:44:48;;;;;;;11.55;6.07;;;;;12.80;96252.00;;;;8281516;28;20243;-73
2022/04/11 17:48:51;;;;;;;12.00;6.65;;;;;12.50;96256.00;;;;8282296;28;21247;-72
2022/04/11 17:52:55;;;;;;;13.27;6.40;;;;;12.30;96262.00;;;;8282884;28;20247;-71
2022/04/11 17:56:58;;;;;;;10.27;5.80;;;;;12.00;96257.00;;;;8284427;28;20232;-73
2022/04/11 18:01:03;;;;;;;9.85;5.90;;;;;11.70;96267.00;;;;8281513;28;20230;-72
2022/04/11 18:05:08;;;;;;;53.55;8.30;;;;;11.30;96263.00;;;;8279478;28;20230;-72
2022/04/11 18:09:11;;;;;;;12.63;6.35;;;;;10.70;96266.00;;;;8279847;28;20291;-73
2022/04/11 18:13:14;;;;;;;12.63;6.43;;;;;10.20;96268.00;;;;8281722;28;20225;-70
2022/04/11 18:17:19;;;;;;;9.70;5.77;;;;;9.70;96270.00;;;;8282013;28;20218;-71
2022/04/11 18:21:22;;;;;;;13.57;7.33;;;;;9.20;96265.00;;;;8275127;28;20743;-72
2022/04/11 18:25:25;;;;;;;19.47;7.00;;;;;9.00;96264.00;;;;8277873;28;20230;-72
2022/04/11 18:33:51;;;;;;;13.80;6.70;;;;;8.40;96270.00;;;;8274849;28;20222;-75
2022/04/11 18:37:58;;;;;;;14.17;7.20;;;;;8.30;96276.00;;;;8280194;28;20717;-73
2022/04/11 18:42:03;;;;;;;14.47;6.53;;;;;8.10;96284.00;;;;8277580;28;20292;-70
2022/04/11 18:46:08;;;;;;;14.77;7.23;;;;;8.00;96291.00;;;;8280322;28;20348;-71
2022/04/11 18:50:13;;;;;;;11.37;6.40;;;;;8.00;96292.00;;;;8278664;28;20256;-72
2022/04/11 18:54:16;;;;;;;14.03;7.33;;;;;7.80;96281.00;;;;8279407;28;20236;-71
2022/04/11 18:58:19;;;;;;;14.43;6.80;;;;;7.70;96289.00;;;;8278838;28;20566;-72
2022/04/11 19:02:23;;;;;;;18.77;7.50;;;;;7.50;96282.00;;;;8279608;28;20615;-72
2022/04/11 19:06:27;;;;;;;16.03;6.97;;;;;7.70;96281.00;;;;8279226;28;21027;-72
2022/04/11 19:10:31;;;;;;;13.83;7.33;;;;;8.00;96278.00;;;;8279048;28;20230;-74
2022/04/11 19:14:34;;;;;;;16.13;7.90;;;;;8.20;96277.00;;;;8279440;28;20308;-71
2022/04/11 19:18:37;;;;;;;17.23;7.97;;;;;8.30;96280.00;;;;8282191;28;20237;-71
2022/04/11 19:22:42;;;;;;;17.20;7.57;;;;;8.20;96285.00;;;;8277369;28;20821;-70
2022/04/11 19:26:46;;;;;;;12.97;7.13;;;;;8.00;96279.00;;;;8280436;28;20237;-70
2022/04/11 19:30:49;;;;;;;16.30;7.30;;;;;7.90;96276.00;;;;8278726;28;20251;-73
2022/04/11 19:34:53;;;;;;;13.70;7.40;;;;;7.70;96276.00;;;;8280758;28;20217;-71
2022/04/11 19:38:58;;;;;;;20.63;8.10;;;;;7.50;96265.00;;;;8285678;28;20268;-71
2022/04/11 19:43:02;;;;;;;14.90;8.30;;;;;7.20;96269.00;;;;8287386;28;20311;-72
2022/04/11 19:47:06;;;;;;;16.50;8.73;;;;;6.90;96270.00;;;;8286029;28;20501;-71
2022/04/11 19:51:09;;;;;;;18.93;8.43;;;;;6.70;96270.00;;;;8288996;28;20232;-70
2022/04/11 19:55:15;;;;;;;15.03;8.03;;;;;6.60;96269.00;;;;8290087;28;20229;-71
2022/04/11 19:59:18;;;;;;;16.83;8.80;;;;;6.60;96268.00;;;;8280881;28;20234;-68
2022/04/11 20:03:21;;;;;;;14.10;8.20;;;;;6.60;96275.00;;;;8290114;28;20233;-67
2022/04/11 20:07:25;;;;;;;17.87;8.67;;;;;6.50;96275.00;;;;8282882;28;20998;-70
2022/04/11 20:11:29;;;;;;;20.67;8.33;;;;;6.40;96270.00;;;;8283800;28;20236;-70
2022/04/11 20:15:33;;;;;;;14.00;7.73;;;;;6.30;96278.00;;;;8284220;28;20226;-70
2022/04/11 20:19:36;;;;;;;18.10;8.67;;;;;6.20;96273.00;;;;8285932;28;20225;-70
2022/04/11 20:23:39;;;;;;;19.77;8.20;;;;;6.00;96277.00;;;;8285333;28;20225;-72
2022/04/11 20:27:44;;;;;;;15.73;8.03;;;;;5.90;96274.00;;;;8286181;28;20236;-70
2022/04/11 20:31:47;;;;;;;19.63;10.63;;;;;5.70;96275.00;;;;8285693;28;20234;-73